Time;durP1;ratioP1;P1;durP2;ratioP2;P2;SDS_P1;SDS_P2;PMS_P1;PMS_P2;Temp;Humidity;BMP_temperature;BMP_pressure;BME280_temperature;BME280_humidity;BME280_pressure;Samples;Min_cycle;Max_cycle;Signal;HPM_P1;HPM_P2
2022/07/24 00:01:51;;;;;;;6.10;1.80;;;;;22.90;97269.40;;;;111115;1248;41148;-71
2022/07/24 00:04:20;;;;;;;6.70;2.40;;;;;22.82;97266.60;;;;111267;1245;41611;-71
2022/07/24 00:06:50;;;;;;;11.00;2.90;;;;;22.70;97267.40;;;;111218;1246;41468;-72
2022/07/24 00:09:19;;;;;;;8.80;3.30;;;;;22.58;97269.60;;;;111248;1246;41553;-71
2022/07/24 00:11:49;;;;;;;10.30;3.50;;;;;22.38;97267.00;;;;111188;1247;41158;-71
2022/07/24 00:14:19;;;;;;;8.30;3.20;;;;;22.20;97270.40;;;;111246;1246;41258;-71
2022/07/24 00:16:48;;;;;;;7.40;2.80;;;;;22.20;97271.00;;;;111236;1247;41154;-71
2022/07/24 00:19:18;;;;;;;6.90;3.00;;;;;22.18;97284.40;;;;111401;1245;41143;-71
2022/07/24 00:21:48;;;;;;;7.50;3.10;;;;;22.18;97304.00;;;;111205;1248;41142;-70
2022/07/24 00:24:18;;;;;;;11.70;4.20;;;;;22.10;97357.40;;;;111483;1247;41129;-71
2022/07/24 00:26:47;;;;;;;10.40;4.50;;;;;22.10;97380.80;;;;111229;1247;41593;-70
2022/07/24 00:29:19;;;;;;;8.50;4.00;;;;;22.12;97353.60;;;;111309;1247;41572;-71
2022/07/24 00:31:49;;;;;;;11.10;4.60;;;;;22.20;97310.20;;;;111209;1247;41157;-72
2022/07/24 00:34:18;;;;;;;9.90;3.50;;;;;22.30;97323.80;;;;110953;1250;41145;-70
2022/07/24 00:36:48;;;;;;;10.90;4.50;;;;;22.32;97362.80;;;;111429;1247;42337;-71
2022/07/24 00:39:17;;;;;;;10.60;3.60;;;;;22.34;97380.00;;;;111166;1247;41608;-71
2022/07/24 00:41:46;;;;;;;9.60;3.40;;;;;22.34;97360.00;;;;111119;1248;41601;-71
2022/07/24 00:44:16;;;;;;;9.90;3.50;;;;;22.36;97319.40;;;;111219;1248;41172;-71
2022/07/24 00:46:46;;;;;;;8.40;3.30;;;;;22.32;97314.80;;;;111180;1247;41212;-71
2022/07/24 00:49:18;;;;;;;9.90;3.60;;;;;22.30;97332.40;;;;110963;1247;41138;-71
2022/07/24 00:51:51;;;;;;;7.30;3.10;;;;;22.30;97333.20;;;;111156;1247;41151;-71
2022/07/24 00:54:22;;;;;;;11.20;3.70;;;;;22.20;97321.20;;;;111316;1247;41318;-71
2022/07/24 00:56:54;;;;;;;21.10;3.70;;;;;22.20;97308.20;;;;111162;1247;41141;-71
2022/07/24 00:59:23;;;;;;;11.60;3.40;;;;;22.20;97320.40;;;;111250;1246;41428;-71
2022/07/24 01:01:53;;;;;;;9.60;4.00;;;;;22.18;97320.80;;;;111313;1246;41126;-72
2022/07/24 01:04:23;;;;;;;8.10;3.20;;;;;22.06;97310.20;;;;111151;1248;41300;-71
2022/07/24 01:06:54;;;;;;;10.20;3.20;;;;;22.10;97312.80;;;;111456;1247;41167;-71
2022/07/24 01:09:24;;;;;;;8.70;3.40;;;;;22.06;97308.80;;;;111104;1247;41138;-71
2022/07/24 01:11:53;;;;;;;;;;;;;22.06;97306.80;;;;111108;1248;40750;-71
2022/07/24 01:14:25;;;;;;;9.00;3.80;;;;;21.80;97302.40;;;;111177;1248;41147;-71
2022/07/24 01:16:57;;;;;;;6.60;2.60;;;;;21.80;97310.80;;;;111229;1247;41962;-71
2022/07/24 01:19:28;;;;;;;8.90;3.00;;;;;21.80;97304.40;;;;111237;1247;41934;-71
2022/07/24 01:21:59;;;;;;;9.20;3.00;;;;;21.80;97304.40;;;;111292;1246;41182;-70
2022/07/24 01:24:31;;;;;;;7.80;3.10;;;;;21.80;97305.00;;;;111204;1247;41121;-71
2022/07/24 01:27:01;;;;;;;7.60;3.40;;;;;21.80;97302.00;;;;111353;1246;40983;-70
2022/07/24 01:29:32;;;;;;;7.00;2.70;;;;;21.80;97301.20;;;;111128;1248;42127;-71
2022/07/24 01:32:02;;;;;;;8.30;3.10;;;;;21.80;97297.40;;;;111265;1247;41166;-71
2022/07/24 01:34:33;;;;;;;6.40;2.60;;;;;21.80;97291.00;;;;111205;1247;41150;-71
2022/07/24 01:37:03;;;;;;;7.30;3.00;;;;;21.80;97289.80;;;;111427;1247;41204;-71
2022/07/24 01:39:33;;;;;;;7.30;3.20;;;;;21.80;97288.20;;;;111179;1247;41249;-71
2022/07/24 01:42:04;;;;;;;8.10;3.10;;;;;21.80;97290.20;;;;111260;1247;41137;-71
2022/07/24 01:44:34;;;;;;;7.80;2.90;;;;;21.80;97294.40;;;;111473;1245;41607;-71
2022/07/24 01:47:03;;;;;;;5.70;2.60;;;;;21.80;97292.00;;;;111393;1245;41136;-71
2022/07/24 01:49:34;;;;;;;7.60;2.80;;;;;21.80;97304.60;;;;111352;1244;42046;-71
2022/07/24 01:52:04;;;;;;;6.30;2.80;;;;;21.80;97299.20;;;;111223;1247;40875;-71
2022/07/24 01:54:36;;;;;;;8.60;3.40;;;;;21.80;97301.20;;;;111225;1247;41154;-71
2022/07/24 01:57:08;;;;;;;9.90;3.40;;;;;21.80;97308.60;;;;111286;1247;42079;-72
2022/07/24 01:59:39;;;;;;;7.80;2.90;;;;;21.80;97315.20;;;;111297;1245;41683;-71
2022/07/24 02:02:09;;;;;;;6.80;2.70;;;;;21.70;97313.80;;;;111319;1245;42497;-71
2022/07/24 02:04:39;;;;;;;7.40;2.90;;;;;21.70;97320.20;;;;111359;1245;41904;-71
2022/07/24 02:07:11;;;;;;;10.10;3.40;;;;;21.70;97323.20;;;;111427;1245;41260;-70
2022/07/24 02:09:43;;;;;;;8.20;3.40;;;;;21.70;97315.00;;;;111149;1247;41157;-70
2022/07/24 02:12:13;;;;;;;7.80;3.10;;;;;21.64;97305.40;;;;111205;1247;42291;-71
2022/07/24 02:14:45;;;;;;;6.30;2.50;;;;;21.60;97299.40;;;;111189;1247;41122;-73
2022/07/24 02:17:16;;;;;;;7.10;2.80;;;;;21.54;97300.20;;;;111398;1247;41157;-71
2022/07/24 02:19:46;;;;;;;10.00;3.40;;;;;21.50;97297.60;;;;111488;1246;41134;-71
2022/07/24 02:22:16;;;;;;;6.90;2.70;;;;;21.50;97292.00;;;;111208;1247;41188;-72
2022/07/24 02:24:47;;;;;;;8.20;3.10;;;;;21.48;97295.20;;;;111434;1246;41143;-71
2022/07/24 02:27:17;;;;;;;7.70;3.00;;;;;21.40;97302.80;;;;111241;1247;41250;-71
2022/07/24 02:29:49;;;;;;;7.30;3.20;;;;;21.40;97314.40;;;;111493;1245;41131;-70
2022/07/24 02:32:21;;;;;;;7.60;3.20;;;;;21.40;97309.20;;;;111349;1247;42436;-71
2022/07/24 02:34:54;;;;;;;6.70;2.90;;;;;21.40;97303.00;;;;111213;1247;42728;-71
2022/07/24 02:37:26;;;;;;;7.40;3.20;;;;;21.38;97306.60;;;;111158;1248;41605;-72
2022/07/24 02:39:59;;;;;;;9.30;3.30;;;;;21.38;97305.60;;;;111233;1247;41145;-72
2022/07/24 02:42:29;;;;;;;11.30;3.80;;;;;21.30;97306.00;;;;111227;1245;41132;-72
2022/07/24 02:44:59;;;;;;;7.70;3.60;;;;;21.10;97300.60;;;;111190;1247;41134;-72
2022/07/24 02:47:28;;;;;;;10.30;3.10;;;;;21.10;97297.40;;;;111162;1247;41156;-71
2022/07/24 02:49:58;;;;;;;7.00;2.90;;;;;21.10;97298.40;;;;111428;1246;41355;-72
2022/07/24 02:52:30;;;;;;;7.60;2.70;;;;;21.16;97295.40;;;;111240;1247;41162;-72
2022/07/24 02:55:00;;;;;;;6.80;3.10;;;;;21.12;97294.60;;;;111526;1247;42065;-72
2022/07/24 02:57:32;;;;;;;5.90;2.70;;;;;21.16;97287.00;;;;111289;1246;41130;-72
2022/07/24 03:00:06;;;;;;;6.20;2.60;;;;;21.10;97292.20;;;;111188;1248;41140;-71
2022/07/24 03:02:36;;;;;;;7.00;2.50;;;;;21.10;97292.40;;;;110947;1247;41591;-72
2022/07/24 03:05:07;;;;;;;;;;;;;21.10;97294.40;;;;111035;1249;41155;-72
2022/07/24 03:07:37;;;;;;;;;;;;;21.10;97284.80;;;;111274;1245;41253;-71
2022/07/24 03:10:09;;;;;;;;;;;;;21.02;97287.00;;;;111262;1246;41713;-71
2022/07/24 03:12:40;;;;;;;9.00;3.60;;;;;21.00;97283.00;;;;111202;1245;41308;-71
2022/07/24 03:15:11;;;;;;;10.50;3.30;;;;;21.10;97281.60;;;;111167;1247;41133;-71
2022/07/24 03:17:52;;;;;;;12.10;4.50;;;;;20.90;97282.40;;;;111297;1246;41598;-70
2022/07/24 03:20:26;;;;;;;11.50;3.20;;;;;20.78;97282.40;;;;111247;1247;41129;-71
2022/07/24 03:22:56;;;;;;;8.40;2.80;;;;;20.70;97276.00;;;;111501;1246;41598;-71
2022/07/24 03:25:26;;;;;;;8.20;2.70;;;;;20.72;97271.60;;;;111057;1247;41348;-71
2022/07/24 03:27:55;;;;;;;7.00;2.90;;;;;20.80;97263.80;;;;111383;1247;41622;-71
2022/07/24 03:30:25;;;;;;;8.20;2.50;;;;;20.80;97266.40;;;;111215;1247;41132;-70
2022/07/24 03:32:55;;;;;;;8.10;3.10;;;;;20.80;97267.20;;;;111175;1247;40738;-71
2022/07/24 03:35:25;;;;;;;5.80;2.60;;;;;20.88;97271.00;;;;111561;1246;41134;-71
2022/07/24 03:37:54;;;;;;;7.40;2.70;;;;;20.90;97274.60;;;;111000;1250;42839;-71
2022/07/24 03:40:25;;;;;;;5.40;2.50;;;;;21.00;97280.80;;;;111195;1247;41935;-71
2022/07/24 03:42:55;;;;;;;7.50;2.70;;;;;21.00;97274.40;;;;111273;1247;42268;-70
2022/07/24 03:45:26;;;;;;;;;;;;;21.10;97270.20;;;;111474;1246;41668;-72
2022/07/24 03:47:56;;;;;;;9.30;3.40;;;;;21.20;97269.40;;;;111222;1247;41256;-72
2022/07/24 03:50:26;;;;;;;7.50;2.60;;;;;21.30;97275.40;;;;111302;1247;41168;-72
2022/07/24 03:52:57;;;;;;;8.20;3.40;;;;;21.36;97279.00;;;;111321;1246;41163;-72
2022/07/24 03:55:26;;;;;;;7.60;2.90;;;;;21.44;97279.60;;;;111208;1248;41159;-72
2022/07/24 03:57:56;;;;;;;8.30;3.50;;;;;21.52;97283.40;;;;111223;1247;41230;-72
2022/07/24 04:00:26;;;;;;;10.30;3.30;;;;;21.60;97282.60;;;;111577;1245;41397;-72
2022/07/24 04:02:57;;;;;;;9.10;3.60;;;;;21.70;97279.20;;;;111328;1245;41612;-72
2022/07/24 04:05:27;;;;;;;11.00;4.50;;;;;21.70;97273.20;;;;111180;1248;41182;-72
2022/07/24 04:07:57;;;;;;;9.60;3.60;;;;;21.62;97264.00;;;;111259;1247;41163;-72
2022/07/24 04:10:28;;;;;;;7.90;2.90;;;;;21.60;97260.80;;;;111616;1245;41645;-72
2022/07/24 04:12:57;;;;;;;9.30;3.20;;;;;21.70;97268.00;;;;111120;1247;41257;-72
2022/07/24 04:15:27;;;;;;;8.50;3.20;;;;;21.70;97271.00;;;;111562;1246;42528;-72
2022/07/24 04:17:56;;;;;;;7.00;2.80;;;;;21.90;97274.40;;;;111183;1247;41181;-72
2022/07/24 04:20:26;;;;;;;8.20;2.90;;;;;22.00;97271.60;;;;111197;1247;41594;-70
2022/07/24 04:22:56;;;;;;;6.70;2.70;;;;;22.10;97275.60;;;;111194;1247;42105;-71
2022/07/24 04:25:26;;;;;;;9.40;3.20;;;;;22.20;97279.80;;;;111336;1245;41418;-71
2022/07/24 04:27:55;;;;;;;8.60;2.80;;;;;22.30;97280.00;;;;111301;1247;41710;-71
2022/07/24 04:30:25;;;;;;;10.20;3.90;;;;;22.30;97274.60;;;;111447;1246;42403;-72
2022/07/24 04:32:54;;;;;;;10.90;3.70;;;;;22.30;97266.00;;;;111388;1247;42543;-72
2022/07/24 04:35:24;;;;;;;8.10;3.60;;;;;22.36;97264.40;;;;111343;1247;41691;-72
2022/07/24 04:37:53;;;;;;;8.40;3.10;;;;;22.40;97266.40;;;;111329;1247;41136;-72
2022/07/24 04:40:23;;;;;;;7.40;2.90;;;;;22.42;97275.20;;;;111306;1246;41368;-72
2022/07/24 04:42:52;;;;;;;7.90;2.90;;;;;22.50;97280.40;;;;111297;1247;41246;-72
2022/07/24 04:45:22;;;;;;;9.40;3.00;;;;;22.68;97277.20;;;;111146;1248;41123;-72
2022/07/24 04:47:51;;;;;;;8.10;3.00;;;;;22.84;97277.40;;;;111324;1247;41146;-72
2022/07/24 04:50:21;;;;;;;6.70;2.60;;;;;23.00;97283.80;;;;111436;1246;41143;-72
2022/07/24 04:52:55;;;;;;;6.10;2.80;;;;;23.10;97284.20;;;;111143;1247;41155;-71
2022/07/24 04:55:24;;;;;;;5.70;2.60;;;;;23.10;97285.40;;;;111112;1248;41468;-72
2022/07/24 04:57:54;;;;;;;8.60;2.80;;;;;23.20;97287.20;;;;111180;1247;41124;-72
2022/07/24 05:00:23;;;;;;;9.20;2.80;;;;;23.22;97286.60;;;;111180;1247;41174;-72
2022/07/24 05:02:52;;;;;;;7.20;2.80;;;;;23.30;97276.60;;;;111131;1247;41176;-72
2022/07/24 05:05:22;;;;;;;6.60;2.50;;;;;23.40;97282.00;;;;111224;1247;41164;-72
2022/07/24 05:07:52;;;;;;;6.80;2.50;;;;;23.40;97279.80;;;;111226;1247;41168;-72
2022/07/24 05:10:21;;;;;;;6.50;2.50;;;;;23.50;97280.00;;;;111437;1246;41204;-72
2022/07/24 05:12:50;;;;;;;9.70;3.40;;;;;23.94;97267.00;;;;111193;1248;41164;-72
2022/07/24 05:15:19;;;;;;;5.60;2.40;;;;;24.68;97265.00;;;;111361;1246;42913;-72
2022/07/24 05:17:49;;;;;;;6.70;2.50;;;;;25.52;97274.00;;;;111272;1247;41849;-71
2022/07/24 05:20:18;;;;;;;7.30;2.90;;;;;26.30;97288.40;;;;111379;1246;41132;-72
2022/07/24 05:22:47;;;;;;;9.00;3.00;;;;;27.04;97282.60;;;;111524;1244;41263;-71
2022/07/24 05:25:16;;;;;;;7.30;2.80;;;;;27.70;97278.80;;;;111451;1247;41373;-72
2022/07/24 05:27:45;;;;;;;8.00;3.60;;;;;28.00;97290.20;;;;111199;1247;41747;-71
2022/07/24 05:30:14;;;;;;;8.90;2.70;;;;;27.68;97283.60;;;;111229;1245;41748;-72
2022/07/24 05:32:43;;;;;;;7.60;3.20;;;;;27.50;97284.40;;;;111207;1247;41176;-72
2022/07/24 05:35:13;;;;;;;7.30;2.80;;;;;27.50;97305.60;;;;111191;1247;41148;-72
2022/07/24 05:37:42;;;;;;;6.00;2.30;;;;;27.70;97295.40;;;;111284;1245;41604;-72
2022/07/24 05:40:12;;;;;;;7.70;2.90;;;;;28.14;97294.80;;;;111150;1248;41254;-71
2022/07/24 05:42:41;;;;;;;12.40;2.60;;;;;28.50;97307.40;;;;111166;1247;41183;-72
2022/07/24 05:45:10;;;;;;;9.00;2.80;;;;;28.48;97311.80;;;;111167;1248;41310;-71
2022/07/24 05:47:41;;;;;;;9.70;3.30;;;;;28.30;97307.60;;;;111301;1246;41931;-72
2022/07/24 05:50:12;;;;;;;8.40;2.70;;;;;28.10;97313.00;;;;111285;1247;41546;-72
2022/07/24 05:52:42;;;;;;;8.90;2.80;;;;;28.20;97320.60;;;;111324;1246;41253;-72
2022/07/24 05:55:11;;;;;;;7.30;3.00;;;;;28.30;97340.20;;;;111162;1248;41551;-72
2022/07/24 05:57:45;;;;;;;10.30;3.10;;;;;28.30;97355.20;;;;111049;1248;41319;-71
2022/07/24 06:00:18;;;;;;;7.90;2.90;;;;;28.28;97374.20;;;;111172;1245;41133;-72
2022/07/24 06:02:51;;;;;;;11.60;3.50;;;;;28.40;97373.20;;;;111062;1248;40735;-73
2022/07/24 06:05:20;;;;;;;11.90;3.40;;;;;28.48;97358.40;;;;111289;1246;41146;-72
2022/07/24 06:07:49;;;;;;;8.20;3.00;;;;;28.60;97348.60;;;;111150;1247;41500;-72
2022/07/24 06:10:18;;;;;;;10.20;3.00;;;;;29.00;97344.60;;;;111098;1248;41829;-71
2022/07/24 06:12:49;;;;;;;7.70;2.80;;;;;29.38;97356.40;;;;111130;1247;41623;-71
2022/07/24 06:15:18;;;;;;;8.60;3.20;;;;;29.90;97357.80;;;;111187;1247;41752;-72
2022/07/24 06:17:47;;;;;;;7.40;2.80;;;;;30.42;97349.00;;;;111180;1247;41256;-71
2022/07/24 06:20:16;;;;;;;7.20;2.90;;;;;30.80;97348.20;;;;111201;1246;41255;-71
2022/07/24 06:22:45;;;;;;;6.40;2.70;;;;;31.10;97347.80;;;;111413;1246;41371;-71
2022/07/24 06:25:18;;;;;;;7.30;2.50;;;;;31.60;97344.40;;;;111170;1246;41500;-72
2022/07/24 06:27:49;;;;;;;9.00;3.20;;;;;32.22;97346.20;;;;111118;1248;42000;-71
2022/07/24 06:30:21;;;;;;;6.60;2.80;;;;;32.94;97343.20;;;;111171;1248;42074;-72
2022/07/24 06:32:52;;;;;;;11.40;2.90;;;;;33.62;97340.80;;;;111072;1245;41985;-72
2022/07/24 06:35:21;;;;;;;7.70;2.50;;;;;34.30;97340.40;;;;111183;1248;41135;-72
2022/07/24 06:37:50;;;;;;;9.80;3.00;;;;;35.00;97339.20;;;;111131;1247;41187;-72
2022/07/24 06:40:20;;;;;;;7.50;2.90;;;;;35.38;97334.60;;;;111135;1248;41588;-72
2022/07/24 06:42:49;;;;;;;8.20;3.30;;;;;35.70;97329.80;;;;111167;1247;41112;-72
2022/07/24 06:45:18;;;;;;;9.30;2.90;;;;;35.80;97335.00;;;;111444;1247;41149;-71
2022/07/24 06:47:47;;;;;;;10.70;3.30;;;;;36.10;97340.00;;;;111140;1248;41512;-71
2022/07/24 06:50:16;;;;;;;7.20;2.80;;;;;36.32;97339.80;;;;111291;1246;41159;-72
2022/07/24 06:52:45;;;;;;;7.10;2.90;;;;;36.70;97342.60;;;;111195;1247;41497;-73
2022/07/24 06:55:15;;;;;;;8.50;3.00;;;;;37.10;97343.80;;;;111215;1247;41278;-71
2022/07/24 06:57:44;;;;;;;6.70;2.90;;;;;37.18;97343.40;;;;111134;1248;41720;-72
2022/07/24 07:00:13;;;;;;;8.20;3.00;;;;;37.40;97341.00;;;;111274;1247;41233;-72
2022/07/24 07:02:42;;;;;;;6.80;2.80;;;;;37.70;97341.40;;;;111173;1247;41240;-71
2022/07/24 07:05:12;;;;;;;8.60;3.10;;;;;37.88;97349.80;;;;111371;1247;41285;-71
2022/07/24 07:07:42;;;;;;;8.70;2.80;;;;;37.36;97349.40;;;;111146;1247;41906;-71
2022/07/24 07:10:11;;;;;;;7.80;3.00;;;;;37.12;97342.00;;;;111366;1246;41133;-71
2022/07/24 07:12:40;;;;;;;9.00;3.10;;;;;36.66;97344.60;;;;111143;1248;41137;-72
2022/07/24 07:15:10;;;;;;;7.10;2.60;;;;;36.60;97342.20;;;;111321;1246;41150;-72
2022/07/24 07:17:40;;;;;;;8.00;2.90;;;;;36.90;97338.00;;;;111226;1247;41259;-72
2022/07/24 07:20:11;;;;;;;9.30;3.00;;;;;36.52;97334.80;;;;111284;1245;40728;-72
2022/07/24 07:22:41;;;;;;;10.60;2.80;;;;;36.34;97343.40;;;;111214;1247;42387;-71
2022/07/24 07:25:11;;;;;;;5.50;2.20;;;;;36.04;97342.00;;;;111093;1247;41636;-73
2022/07/24 07:27:40;;;;;;;7.10;2.90;;;;;35.74;97345.40;;;;111340;1245;41143;-72
2022/07/24 07:30:10;;;;;;;7.20;2.40;;;;;35.26;97342.40;;;;111174;1247;41428;-71
2022/07/24 07:32:40;;;;;;;7.50;2.50;;;;;34.98;97347.00;;;;111213;1247;41163;-71
2022/07/24 07:35:09;;;;;;;6.70;2.70;;;;;34.78;97345.20;;;;111259;1247;41140;-72
2022/07/24 07:37:49;;;;;;;5.80;2.30;;;;;34.60;97343.20;;;;111140;1247;41141;-71
2022/07/24 07:40:19;;;;;;;7.20;2.60;;;;;34.60;97344.60;;;;111138;1249;42020;-73
2022/07/24 07:42:48;;;;;;;5.80;2.40;;;;;34.60;97343.60;;;;111189;1248;41123;-71
2022/07/24 07:45:17;;;;;;;8.10;2.80;;;;;34.60;97343.20;;;;110899;1247;348882;-71
2022/07/24 07:47:46;;;;;;;11.20;2.90;;;;;34.50;97343.60;;;;111290;1247;41258;-71
2022/07/24 07:50:16;;;;;;;9.40;3.20;;;;;34.32;97332.60;;;;111269;1247;41619;-72
2022/07/24 07:52:45;;;;;;;7.10;2.60;;;;;33.96;97324.60;;;;111120;1248;41421;-71
2022/07/24 07:55:14;;;;;;;7.00;2.60;;;;;34.10;97316.20;;;;111168;1248;41124;-71
2022/07/24 07:57:43;;;;;;;7.80;2.90;;;;;34.20;97317.00;;;;111235;1248;41251;-71
2022/07/24 08:00:33;;;;;;;7.50;2.30;;;;;34.10;97319.40;;;;111263;1247;41156;-71
2022/07/24 08:03:02;;;;;;;9.00;2.50;;;;;34.10;97318.80;;;;111216;1245;41230;-72
2022/07/24 08:05:31;;;;;;;6.80;2.70;;;;;34.20;97306.20;;;;111368;1246;41140;-71
2022/07/24 08:08:01;;;;;;;6.40;2.60;;;;;34.08;97309.60;;;;111118;1247;41141;-71
2022/07/24 08:10:30;;;;;;;9.10;2.80;;;;;34.08;97312.40;;;;111117;1247;41136;-70
2022/07/24 08:12:58;;;;;;;6.20;2.40;;;;;34.20;97302.00;;;;111370;1247;41123;-70
2022/07/24 08:15:28;;;;;;;7.10;2.70;;;;;34.20;97305.20;;;;111290;1246;41259;-71
2022/07/24 08:17:58;;;;;;;6.40;2.60;;;;;34.36;97301.40;;;;111071;1247;41261;-70
2022/07/24 08:20:27;;;;;;;7.30;2.40;;;;;34.52;97306.60;;;;111127;1249;41520;-70
2022/07/24 08:22:56;;;;;;;6.70;2.50;;;;;34.60;97311.00;;;;111126;1247;41255;-71
2022/07/24 08:25:26;;;;;;;7.60;3.00;;;;;34.60;97302.40;;;;111201;1247;41332;-71
2022/07/24 08:27:55;;;;;;;6.40;2.40;;;;;34.80;97296.00;;;;111140;1248;41700;-71
2022/07/24 08:30:26;;;;;;;6.50;2.60;;;;;34.90;97294.00;;;;111312;1246;41123;-70
2022/07/24 08:32:54;;;;;;;8.10;2.70;;;;;34.90;97288.00;;;;111174;1247;42012;-71
2022/07/24 08:35:23;;;;;;;6.90;2.40;;;;;35.00;97292.40;;;;111242;1247;41829;-71
2022/07/24 08:38:00;;;;;;;8.00;2.50;;;;;35.04;97281.00;;;;111161;1247;41594;-71
2022/07/24 08:40:35;;;;;;;5.90;2.40;;;;;35.26;97275.80;;;;111233;1247;41124;-71
2022/07/24 08:43:05;;;;;;;5.40;2.00;;;;;35.50;97276.80;;;;111133;1247;41259;-71
2022/07/24 08:45:40;;;;;;;7.50;2.40;;;;;35.78;97281.00;;;;111247;1245;42080;-71
2022/07/24 08:48:10;;;;;;;6.60;2.60;;;;;36.20;97278.60;;;;111173;1247;41265;-71
2022/07/24 08:50:41;;;;;;;8.50;2.70;;;;;36.30;97272.40;;;;111143;1247;41143;-70
2022/07/24 08:53:10;;;;;;;6.20;2.30;;;;;36.30;97265.60;;;;111242;1247;41709;-71
2022/07/24 08:55:40;;;;;;;8.20;2.70;;;;;36.50;97266.60;;;;111234;1247;41150;-72
2022/07/24 08:58:09;;;;;;;8.10;2.50;;;;;36.84;97265.40;;;;111194;1247;41252;-71
2022/07/24 09:00:38;;;;;;;6.60;2.50;;;;;37.00;97258.20;;;;111137;1248;41133;-69
2022/07/24 09:03:07;;;;;;;10.80;2.30;;;;;37.26;97256.20;;;;111468;1246;41249;-69
2022/07/24 09:05:57;;;;;;;4.50;2.00;;;;;37.74;97259.20;;;;111026;1248;42060;-71
2022/07/24 09:08:25;;;;;;;6.00;2.20;;;;;38.04;97262.20;;;;111293;1246;41355;-71
2022/07/24 09:10:59;;;;;;;7.20;2.60;;;;;38.58;97263.40;;;;111131;1247;41150;-71
2022/07/24 09:13:29;;;;;;;7.40;2.40;;;;;39.00;97266.00;;;;111501;1244;41135;-71
2022/07/24 09:15:59;;;;;;;7.00;2.70;;;;;38.38;97279.20;;;;111146;1247;41154;-71
2022/07/24 09:18:31;;;;;;;6.40;2.40;;;;;38.64;97278.20;;;;111377;1246;41248;-71
2022/07/24 09:21:14;;;;;;;5.90;2.40;;;;;38.60;97282.60;;;;111258;1247;42466;-72
2022/07/24 09:23:44;;;;;;;6.00;2.40;;;;;38.60;97281.40;;;;111463;1246;41597;-71
2022/07/24 09:26:13;;;;;;;9.30;2.70;;;;;38.60;97281.00;;;;111305;1247;41121;-72
2022/07/24 09:28:48;;;;;;;6.60;2.40;;;;;38.24;97279.80;;;;111300;1247;41472;-71
2022/07/24 09:31:17;;;;;;;5.00;2.20;;;;;37.80;97283.40;;;;111136;1246;41184;-70
2022/07/24 09:33:46;;;;;;;;;;;;;37.70;97282.20;;;;110935;1250;41701;-70
2022/07/24 09:36:17;;;;;;;7.50;2.10;;;;;37.60;97285.40;;;;111241;1247;41138;-72
2022/07/24 09:38:49;;;;;;;6.30;2.70;;;;;37.50;97285.40;;;;111180;1248;41150;-71
2022/07/24 09:41:25;;;;;;;12.20;2.50;;;;;37.50;97284.40;;;;111262;1245;41588;-72
2022/07/24 09:44:02;;;;;;;4.80;2.10;;;;;37.72;97285.20;;;;111128;1247;41266;-72
2022/07/24 09:46:57;;;;;;;7.40;2.20;;;;;38.30;97279.20;;;;111312;1246;41610;-71
2022/07/24 09:49:28;;;;;;;5.50;2.00;;;;;38.40;97282.40;;;;111137;1247;42050;-71
2022/07/24 09:52:13;;;;;;;6.20;2.40;;;;;38.74;97277.40;;;;111259;1246;41245;-71
2022/07/24 09:54:44;;;;;;;6.20;2.60;;;;;39.40;97278.60;;;;111229;1247;41604;-70
2022/07/24 09:57:27;;;;;;;7.00;2.90;;;;;39.06;97275.80;;;;111127;1247;41597;-72
2022/07/24 10:00:06;;;;;;;6.20;2.50;;;;;38.56;97282.60;;;;111172;1248;41257;-71
2022/07/24 10:02:36;;;;;;;;;;;;;37.52;97285.20;;;;111296;1247;41145;-72
2022/07/24 10:05:09;;;;;;;6.10;2.30;;;;;37.22;97284.20;;;;111175;1248;41162;-72
2022/07/24 10:07:39;;;;;;;5.70;2.60;;;;;37.20;97287.00;;;;111208;1248;42897;-71
2022/07/24 10:10:09;;;;;;;5.30;2.40;;;;;37.10;97284.00;;;;111206;1247;41367;-72
2022/07/24 10:12:44;;;;;;;6.80;2.60;;;;;37.16;97279.20;;;;111325;1245;41146;-71
2022/07/24 10:15:14;;;;;;;6.80;2.50;;;;;37.00;97285.40;;;;111397;1246;41236;-70
2022/07/24 10:17:45;;;;;;;7.30;2.50;;;;;36.66;97293.40;;;;111443;1246;41726;-70
2022/07/24 10:20:23;;;;;;;8.60;2.90;;;;;36.36;97289.00;;;;111554;1246;41256;-70
2022/07/24 10:23:25;;;;;;;9.50;3.30;;;;;35.70;97292.40;;;;111533;1247;42371;-71
2022/07/24 10:26:05;;;;;;;6.90;2.80;;;;;35.28;97294.80;;;;111138;1247;41145;-72
2022/07/24 10:28:38;;;;;;;7.60;2.70;;;;;35.02;97303.00;;;;111299;1245;41136;-70
2022/07/24 10:31:10;;;;;;;7.00;2.80;;;;;35.06;97301.00;;;;111210;1246;41248;-70
2022/07/24 10:33:41;;;;;;;9.00;3.40;;;;;35.06;97296.80;;;;111493;1247;41148;-71
2022/07/24 10:36:18;;;;;;;7.10;2.90;;;;;34.96;97300.00;;;;111404;1247;41260;-70
2022/07/24 10:39:00;;;;;;;7.40;2.50;;;;;34.76;97301.60;;;;111150;1248;41153;-71
2022/07/24 10:41:31;;;;;;;6.90;2.80;;;;;34.80;97301.00;;;;111499;1246;41132;-71
2022/07/24 10:44:17;;;;;;;8.40;2.60;;;;;34.70;97306.80;;;;111547;1246;41133;-71
2022/07/24 10:47:01;;;;;;;8.10;2.80;;;;;34.80;97304.40;;;;111241;1245;42010;-71
2022/07/24 10:49:49;;;;;;;7.60;2.70;;;;;34.90;97301.20;;;;111326;1246;42357;-70
2022/07/24 10:52:27;;;;;;;7.40;2.60;;;;;34.90;97298.40;;;;111081;1247;41604;-70
2022/07/24 10:55:26;;;;;;;7.70;2.70;;;;;35.00;97301.20;;;;111545;1246;41130;-70
2022/07/24 10:58:05;;;;;;;5.80;2.40;;;;;35.18;97300.60;;;;111343;1246;41250;-70
2022/07/24 11:00:37;;;;;;;7.40;2.60;;;;;35.14;97298.40;;;;111478;1246;41926;-71
2022/07/24 11:03:21;;;;;;;8.30;2.70;;;;;35.26;97301.20;;;;111206;1247;41728;-71
2022/07/24 11:06:08;;;;;;;6.90;2.60;;;;;35.30;97296.40;;;;111231;1247;40926;-71
2022/07/24 11:08:40;;;;;;;7.20;2.80;;;;;35.40;97292.00;;;;111560;1245;41127;-71
2022/07/24 11:11:15;;;;;;;7.60;3.20;;;;;36.16;97287.00;;;;111203;1247;41236;-70
2022/07/24 11:13:46;;;;;;;9.80;3.00;;;;;36.58;97283.40;;;;111256;1247;41124;-70
2022/07/24 11:16:15;;;;;;;9.40;3.20;;;;;37.08;97271.80;;;;111525;1246;42251;-70
2022/07/24 11:18:50;;;;;;;7.00;2.80;;;;;37.90;97260.00;;;;111503;1246;42367;-70
2022/07/24 11:21:28;;;;;;;7.60;3.10;;;;;37.90;97262.80;;;;111356;1246;41263;-71
2022/07/24 11:24:21;;;;;;;6.20;2.60;;;;;38.84;97260.40;;;;111457;1245;42339;-68
2022/07/24 11:26:52;;;;;;;9.20;3.30;;;;;39.80;97255.60;;;;111249;1246;41137;-72
2022/07/24 11:29:23;;;;;;;7.90;3.00;;;;;40.52;97244.80;;;;111259;1247;43109;-70
2022/07/24 11:31:57;;;;;;;6.50;2.70;;;;;40.70;97245.80;;;;111264;1247;40920;-70
2022/07/24 11:34:28;;;;;;;6.80;2.50;;;;;41.46;97239.00;;;;111453;1245;41132;-71
2022/07/24 11:36:58;;;;;;;6.70;2.50;;;;;41.70;97234.20;;;;111464;1246;41130;-70
2022/07/24 11:39:34;;;;;;;7.50;2.70;;;;;42.50;97226.80;;;;111213;1247;41152;-71
2022/07/24 11:42:08;;;;;;;7.80;2.60;;;;;42.80;97221.00;;;;111214;1246;41180;-70
2022/07/24 11:44:43;;;;;;;7.90;3.00;;;;;42.96;97228.00;;;;111189;1245;41489;-70
2022/07/24 11:47:13;;;;;;;5.80;2.40;;;;;43.22;97225.60;;;;111489;1246;41148;-69
2022/07/24 11:49:47;;;;;;;5.10;2.40;;;;;43.08;97215.80;;;;111293;1246;41605;-70
2022/07/24 11:52:35;;;;;;;6.40;2.60;;;;;42.78;97215.20;;;;111311;1248;41140;-70
2022/07/24 11:55:12;;;;;;;6.70;2.70;;;;;42.66;97211.80;;;;111278;1247;41612;-69
2022/07/24 11:57:49;;;;;;;7.00;2.70;;;;;42.90;97211.40;;;;111147;1249;41140;-70
2022/07/24 12:00:36;;;;;;;5.90;2.40;;;;;42.40;97212.00;;;;111286;1247;41143;-71
2022/07/24 12:03:05;;;;;;;6.70;2.60;;;;;42.24;97212.60;;;;111245;1248;41146;-70
2022/07/24 12:05:40;;;;;;;8.30;2.70;;;;;42.36;97204.60;;;;111432;1247;41150;-70
2022/07/24 12:08:21;;;;;;;5.90;2.60;;;;;42.02;97209.20;;;;111456;1246;41685;-69
2022/07/24 12:10:57;;;;;;;6.00;2.20;;;;;41.86;97208.00;;;;111262;1247;41133;-70
2022/07/24 12:13:29;;;;;;;6.10;2.70;;;;;41.76;97213.00;;;;111313;1247;41631;-70
2022/07/24 12:15:59;;;;;;;7.60;2.40;;;;;42.06;97202.80;;;;111551;1244;41483;-71
2022/07/24 12:18:28;;;;;;;5.90;2.40;;;;;41.16;97209.80;;;;111133;1248;42028;-72
2022/07/24 12:21:03;;;;;;;8.70;2.30;;;;;40.60;97213.80;;;;111207;1247;42358;-71
2022/07/24 12:23:32;;;;;;;6.50;2.40;;;;;40.80;97213.80;;;;111205;1247;41969;-70
2022/07/24 12:26:02;;;;;;;5.10;2.30;;;;;41.30;97217.20;;;;111254;1247;41142;-70
2022/07/24 12:28:31;;;;;;;6.40;2.60;;;;;41.08;97211.20;;;;111557;1246;41207;-70
2022/07/24 12:31:08;;;;;;;5.50;2.40;;;;;40.30;97214.20;;;;111404;1247;42004;-71